Time;durP1;ratioP1;P1;durP2;ratioP2;P2;SDS_P1;SDS_P2;PMS_P1;PMS_P2;Temp;Humidity;BMP_temperature;BMP_pressure;BME280_temperature;BME280_humidity;BME280_pressure;Samples;Min_cycle;Max_cycle;Signal;HPM_P1;HPM_P2
2023/07/09 00:01:23;;;;;;;;;6.00;5.50;;;;;13.75;95.99;98839.19;4965051;28;101611;-75
2023/07/09 00:04:00;;;;;;;;;15.25;14.75;;;;;13.21;98.91;98793.41;4962627;28;103552;-75
2023/07/09 00:06:47;;;;;;;;;14.50;13.25;;;;;13.35;100.00;98842.03;4964307;28;101820;-75
2023/07/09 00:09:35;;;;;;;;;15.50;15.00;;;;;13.31;99.68;98838.09;4944828;28;101646;-74
2023/07/09 00:12:32;;;;;;;;;10.25;10.25;;;;;13.40;98.18;98842.25;4966411;28;102839;-74
2023/07/09 00:15:15;;;;;;;;;14.00;13.75;;;;;13.47;98.57;98841.38;4963849;28;106836;-75
2023/07/09 00:17:42;;;;;;;;;10.50;10.50;;;;;13.48;96.23;98843.88;4951013;28;101717;-74
2023/07/09 00:20:19;;;;;;;;;6.50;6.25;;;;;13.47;96.92;98830.50;4965273;28;102210;-73
2023/07/09 00:22:51;;;;;;;;;5.75;4.75;;;;;13.45;98.52;98844.31;4970666;28;101691;-73
2023/07/09 00:25:20;;;;;;;;;12.75;12.00;;;;;13.28;100.00;98837.69;4963855;28;103297;-73
2023/07/09 00:27:49;;;;;;;;;13.25;13.00;;;;;13.29;100.00;98839.31;4967985;28;101618;-74
2023/07/09 00:30:22;;;;;;;;;16.25;15.00;;;;;13.03;100.00;98815.75;4966810;28;101936;-75
2023/07/09 00:32:52;;;;;;;;;15.50;15.50;;;;;13.02;100.00;98849.38;4965714;28;102019;-76
2023/07/09 00:35:22;;;;;;;;;17.50;16.50;;;;;13.01;100.00;98836.03;4945327;28;103344;-74
2023/07/09 00:37:49;;;;;;;;;13.75;12.00;;;;;12.84;100.00;98822.03;4966300;28;101522;-74
2023/07/09 00:40:21;;;;;;;;;10.00;9.75;;;;;13.04;100.00;98836.44;4965277;28;101899;-74
2023/07/09 00:42:52;;;;;;;;;9.75;9.75;;;;;12.98;100.00;98839.97;4958298;28;103020;-74
2023/07/09 00:45:24;;;;;;;;;12.25;11.75;;;;;12.92;100.00;98838.13;4963808;27;103466;-74
2023/07/09 00:47:58;;;;;;;;;11.25;10.75;;;;;12.94;100.00;98828.72;4962748;28;102121;-75
2023/07/09 00:50:31;;;;;;;;;11.00;11.00;;;;;12.98;100.00;98840.81;4962524;28;101767;-75
2023/07/09 00:53:07;;;;;;;;;18.50;13.75;;;;;12.87;100.00;98825.19;4964121;28;101722;-74
2023/07/09 00:55:38;;;;;;;;;19.50;19.25;;;;;12.74;100.00;98832.50;4961456;28;103621;-74
2023/07/09 00:58:12;;;;;;;;;23.00;20.75;;;;;12.57;100.00;98823.09;4948865;28;101685;-74
2023/07/09 01:00:53;;;;;;;;;24.25;23.25;;;;;12.54;100.00;98829.78;4966024;27;102863;-74
2023/07/09 01:03:33;;;;;;;;;24.75;21.00;;;;;12.58;100.00;98827.47;4962254;28;101642;-74
2023/07/09 01:06:13;;;;;;;;;19.75;18.00;;;;;12.55;100.00;98827.91;4965746;28;103595;-74
2023/07/09 01:09:00;;;;;;;;;17.50;15.50;;;;;12.59;100.00;98826.44;4965782;28;101921;-74
2023/07/09 01:11:49;;;;;;;;;15.75;15.50;;;;;12.68;100.00;98836.03;4967436;28;101592;-74
2023/07/09 01:14:35;;;;;;;;;12.00;9.75;;;;;12.65;100.00;98814.75;4963754;28;102042;-74
2023/07/09 01:17:22;;;;;;;;;11.00;10.75;;;;;12.78;100.00;98829.16;4967893;28;106827;-74
2023/07/09 01:19:57;;;;;;;;;10.25;10.25;;;;;12.82;100.00;98833.13;4952101;28;102736;-74
2023/07/09 01:22:24;;;;;;;;;11.50;9.00;;;;;12.79;100.00;98822.66;4967066;28;101530;-74
2023/07/09 01:25:02;;;;;;;;;12.00;10.75;;;;;12.74;100.00;98808.88;4966280;28;101909;-74
2023/07/09 01:27:35;;;;;;;;;12.00;10.25;;;;;12.80;100.00;98828.94;4966909;28;103363;-73
2023/07/09 01:30:14;;;;;;;;;8.00;8.00;;;;;12.74;100.00;98829.78;4967986;28;101982;-74
2023/07/09 01:32:45;;;;;;;;;10.25;9.00;;;;;12.71;100.00;98831.03;4942993;28;101424;-74
2023/07/09 01:35:15;;;;;;;;;8.50;7.00;;;;;12.67;100.00;98831.66;4948590;28;101600;-75
2023/07/09 01:37:43;;;;;;;;;12.25;10.25;;;;;12.65;100.00;98828.31;4951676;28;103345;-75
2023/07/09 01:40:13;;;;;;;;;11.25;11.25;;;;;12.55;100.00;98834.16;4947861;28;107759;-74
2023/07/09 01:42:58;;;;;;;;;16.25;13.75;;;;;12.47;100.00;98829.75;4964815;28;101939;-74
2023/07/09 01:45:26;;;;;;;;;13.00;12.25;;;;;12.42;100.00;98826.03;4965666;28;101932;-75
2023/07/09 01:47:55;;;;;;;;;15.50;13.50;;;;;12.47;100.00;98831.66;4965896;28;104790;-75
2023/07/09 01:50:24;;;;;;;;;15.25;12.25;;;;;12.53;100.00;98834.34;4948380;28;102553;-74
2023/07/09 01:52:53;;;;;;;;;8.25;8.25;;;;;12.56;100.00;98833.13;4947922;28;101579;-74
2023/07/09 01:55:21;;;;;;;;;7.75;7.00;;;;;12.55;100.00;98836.88;4962058;28;106071;-74
2023/07/09 01:57:50;;;;;;;;;10.50;9.00;;;;;12.59;100.00;98840.00;4961758;27;103761;-74
2023/07/09 02:00:18;;;;;;;;;6.00;5.50;;;;;12.60;100.00;98842.50;4949129;28;101566;-74
2023/07/09 02:02:46;;;;;;;;;7.75;7.25;;;;;12.50;100.00;98842.91;4961238;27;101675;-74
2023/07/09 02:05:19;;;;;;;;;11.50;9.50;;;;;12.48;100.00;98847.69;4966822;28;101611;-74
2023/07/09 02:07:47;;;;;;;;;6.00;6.00;;;;;12.50;100.00;98845.63;4963723;28;103516;-74
2023/07/09 02:10:17;;;;;;;;;20.25;16.00;;;;;12.16;100.00;98831.41;4968687;28;101623;-74
2023/07/09 02:12:45;;;;;;;;;25.00;21.25;;;;;12.08;100.00;98827.00;4963921;28;101913;-73
2023/07/09 02:15:13;;;;;;;;;14.25;13.75;;;;;12.12;100.00;98833.66;4966244;28;102505;-74
2023/07/09 02:17:40;;;;;;;;;17.00;14.25;;;;;12.26;100.00;98846.22;4966254;28;103547;-74
2023/07/09 02:20:09;;;;;;;;;11.75;11.75;;;;;12.17;100.00;98830.34;4966386;28;101834;-74
2023/07/09 02:22:38;;;;;;;;;12.50;8.25;;;;;12.29;100.00;98856.63;4962156;28;101571;-74
2023/07/09 02:25:06;;;;;;;;;8.25;7.25;;;;;12.22;100.00;98839.53;4968870;28;102013;-73
2023/07/09 02:27:35;;;;;;;;;6.00;6.00;;;;;12.35;100.00;98846.84;4969921;28;103374;-74
2023/07/09 02:30:04;;;;;;;;;7.00;7.00;;;;;12.25;100.00;98843.69;4970343;28;101950;-74
2023/07/09 02:32:31;;;;;;;;;8.75;8.25;;;;;12.32;100.00;98855.41;4967418;28;101786;-73
2023/07/09 02:34:58;;;;;;;;;7.75;6.75;;;;;12.36;100.00;98854.78;4971520;28;101610;-74
2023/07/09 02:37:26;;;;;;;;;7.00;7.00;;;;;12.39;100.00;98857.06;4963759;28;106754;-74
2023/07/09 02:39:53;;;;;;;;;7.00;7.00;;;;;12.40;100.00;98861.47;4969093;28;101815;-74
2023/07/09 02:42:22;;;;;;;;;5.75;5.75;;;;;12.39;100.00;98864.38;4967424;28;101866;-74
2023/07/09 02:44:49;;;;;;;;;4.00;4.00;;;;;12.39;100.00;98869.81;4968613;28;101884;-74
2023/07/09 02:47:17;;;;;;;;;8.00;7.50;;;;;12.28;100.00;98855.00;4967179;28;103552;-74
2023/07/09 02:49:44;;;;;;;;;5.00;5.00;;;;;12.38;100.00;98873.56;4969989;28;101678;-74
2023/07/09 02:52:11;;;;;;;;;4.00;3.25;;;;;12.33;100.00;98870.66;4966360;28;101955;-75
2023/07/09 02:54:38;;;;;;;;;15.00;12.00;;;;;12.16;100.00;98859.31;4954718;28;101827;-75
2023/07/09 02:57:06;;;;;;;;;12.00;9.75;;;;;12.01;100.00;98842.41;4960362;28;109763;-75
2023/07/09 02:59:33;;;;;;;;;14.25;13.25;;;;;12.09;100.00;98866.63;4966775;28;102061;-75
2023/07/09 03:02:01;;;;;;;;;14.25;13.00;;;;;11.97;100.00;98854.69;4967113;27;101628;-74
2023/07/09 03:04:28;;;;;;;;;13.50;13.00;;;;;12.12;100.00;98863.47;4963910;28;101669;-75
2023/07/09 03:06:55;;;;;;;;;14.75;11.00;;;;;12.10;100.00;98865.56;4966737;28;107027;-75
2023/07/09 03:09:23;;;;;;;;;18.25;14.75;;;;;12.01;100.00;98866.81;4966588;28;101700;-75
2023/07/09 03:11:50;;;;;;;;;13.75;11.00;;;;;12.00;100.00;98875.97;4951633;28;101728;-75
2023/07/09 03:14:17;;;;;;;;;14.50;14.25;;;;;12.00;100.00;98882.22;4968661;28;103500;-75
2023/07/09 03:16:44;;;;;;;;;17.00;16.00;;;;;11.99;100.00;98875.13;4965456;28;103339;-75
2023/07/09 03:19:11;;;;;;;;;13.00;11.25;;;;;11.99;100.00;98874.28;4964139;28;101854;-75
2023/07/09 03:21:38;;;;;;;;;15.00;13.50;;;;;12.04;100.00;98869.09;4969842;28;101755;-75
2023/07/09 03:24:07;;;;;;;;;11.25;10.00;;;;;12.10;100.00;98872.88;4970018;28;102243;-75
2023/07/09 03:26:34;;;;;;;;;9.00;8.00;;;;;12.19;100.00;98875.19;4966488;28;102849;-75
2023/07/09 03:29:02;;;;;;;;;9.00;9.00;;;;;12.26;100.00;98880.63;4967291;28;101801;-75
2023/07/09 03:31:29;;;;;;;;;7.00;7.00;;;;;12.33;100.00;98871.47;4968554;28;101695;-75
2023/07/09 03:33:56;;;;;;;;;9.00;8.50;;;;;12.42;100.00;98866.69;4964111;27;101696;-75
2023/07/09 03:36:23;;;;;;;;;6.25;5.75;;;;;12.48;100.00;98863.97;4968641;28;103294;-74
2023/07/09 03:38:50;;;;;;;;;8.00;6.75;;;;;12.52;100.00;98869.81;4965265;28;103807;-74
2023/07/09 03:41:17;;;;;;;;;4.75;4.00;;;;;12.57;100.00;98871.91;4966308;28;102554;-74
2023/07/09 03:43:45;;;;;;;;;5.50;5.50;;;;;12.63;100.00;98871.09;4968506;28;101701;-73
2023/07/09 03:46:12;;;;;;;;;6.00;6.00;;;;;12.67;100.00;98866.91;4970549;28;103721;-73
2023/07/09 03:48:39;;;;;;;;;6.50;6.50;;;;;12.77;100.00;98870.06;4968126;28;101563;-74
2023/07/09 03:51:07;;;;;;;;;6.00;6.00;;;;;12.83;100.00;98872.75;4969259;28;103388;-74
2023/07/09 03:53:34;;;;;;;;;6.00;5.75;;;;;12.95;100.00;98870.25;4966468;27;101812;-74
2023/07/09 03:56:01;;;;;;;;;4.50;4.25;;;;;13.01;100.00;98871.31;4964502;28;103411;-75
2023/07/09 03:58:29;;;;;;;;;0.75;0.75;;;;;13.11;100.00;98871.72;4967424;28;102094;-74
2023/07/09 04:00:56;;;;;;;;;3.25;3.25;;;;;13.19;100.00;98866.91;4969138;28;102435;-74
2023/07/09 04:03:23;;;;;;;;;6.00;5.00;;;;;13.26;100.00;98873.19;4962834;28;101914;-75
2023/07/09 04:05:51;;;;;;;;;8.00;7.75;;;;;13.24;100.00;98858.97;4966775;28;102943;-75
2023/07/09 04:08:18;;;;;;;;;8.00;8.00;;;;;13.32;100.00;98866.06;4969603;28;102118;-75
2023/07/09 04:10:46;;;;;;;;;9.00;8.00;;;;;13.22;100.00;98827.66;4968636;28;101876;-74
2023/07/09 04:13:13;;;;;;;;;6.75;6.75;;;;;13.62;100.00;98871.84;4967043;28;101752;-74
2023/07/09 04:15:40;;;;;;;;;6.75;6.75;;;;;13.72;100.00;98859.47;4968208;28;103334;-75
2023/07/09 04:18:07;;;;;;;;;6.50;5.25;;;;;13.87;100.00;98869.25;4966086;28;101820;-75
2023/07/09 04:20:34;;;;;;;;;3.75;3.25;;;;;14.01;100.00;98866.25;4964848;28;101488;-75
2023/07/09 04:23:02;;;;;;;;;2.00;2.00;;;;;14.12;100.00;98854.69;4968626;28;101594;-74
2023/07/09 04:25:29;;;;;;;;;5.75;5.00;;;;;14.27;100.00;98855.22;4968947;28;103440;-75
2023/07/09 04:27:57;;;;;;;;;4.00;4.00;;;;;14.43;100.00;98864.78;4968043;28;101827;-74
2023/07/09 04:30:24;;;;;;;;;6.25;5.75;;;;;14.55;100.00;98854.84;4969287;28;101931;-75
2023/07/09 04:32:51;;;;;;;;;5.00;5.00;;;;;14.71;100.00;98856.22;4971951;28;101646;-74
2023/07/09 04:35:18;;;;;;;;;5.75;5.00;;;;;14.85;100.00;98855.06;4970140;28;103483;-75
2023/07/09 04:37:45;;;;;;;;;8.25;7.50;;;;;14.94;100.00;98866.50;4969538;28;101894;-74
2023/07/09 04:40:13;;;;;;;;;10.75;10.00;;;;;15.10;100.00;98872.22;4964254;28;101571;-74
2023/07/09 04:42:41;;;;;;;;;10.75;9.75;;;;;15.32;100.00;98869.06;4972538;28;101634;-74
2023/07/09 04:45:10;;;;;;;;;8.00;7.25;;;;;15.48;100.00;98866.63;4970101;28;108154;-75
2023/07/09 04:47:39;;;;;;;;;9.00;8.75;;;;;15.86;100.00;98880.03;4962133;28;101895;-74
2023/07/09 04:50:08;;;;;;;;;10.75;9.75;;;;;16.18;98.28;98879.84;4963743;28;101820;-74
2023/07/09 04:52:35;;;;;;;;;9.25;9.25;;;;;16.45;97.53;98864.78;4963145;28;101922;-74
2023/07/09 04:55:03;;;;;;;;;16.00;16.00;;;;;16.90;94.73;98865.16;4965506;28;103641;-76
2023/07/09 04:57:30;;;;;;;;;12.25;12.25;;;;;17.30;90.83;98877.06;4964872;27;102488;-74
2023/07/09 04:59:57;;;;;;;;;14.00;13.75;;;;;17.73;89.96;98874.00;4966026;28;101653;-74
2023/07/09 05:02:24;;;;;;;;;15.75;14.00;;;;;18.11;89.20;98881.63;4966213;28;101998;-73
2023/07/09 05:04:52;;;;;;;;;14.00;13.75;;;;;18.46;86.55;98884.22;4967129;28;103492;-73
2023/07/09 05:07:19;;;;;;;;;18.75;16.00;;;;;18.73;84.48;98885.31;4966834;28;101773;-75
2023/07/09 05:09:47;;;;;;;;;19.25;18.50;;;;;19.09;83.04;98883.22;4967461;28;105972;-74
2023/07/09 05:12:14;;;;;;;;;21.25;20.00;;;;;19.31;78.11;98873.16;4950134;28;101990;-74
2023/07/09 05:14:41;;;;;;;;;21.50;18.75;;;;;19.58;77.84;98882.38;4964104;28;103555;-74
2023/07/09 05:17:08;;;;;;;;;22.25;19.00;;;;;19.86;78.38;98883.28;4951288;28;101923;-73
2023/07/09 05:19:36;;;;;;;;;19.25;17.50;;;;;20.06;75.13;98889.03;4965779;28;102606;-73
2023/07/09 05:22:04;;;;;;;;;17.00;16.50;;;;;20.34;74.47;98883.38;4963759;28;101760;-73
2023/07/09 05:24:31;;;;;;;;;15.25;15.00;;;;;20.65;73.54;98886.47;4965915;27;103355;-73
2023/07/09 05:26:58;;;;;;;;;20.00;18.50;;;;;20.89;73.09;98882.31;4966834;28;101713;-74
2023/07/09 05:29:25;;;;;;;;;16.00;15.00;;;;;21.28;69.91;98883.78;4962961;28;101841;-73
2023/07/09 05:31:53;;;;;;;;;16.25;15.25;;;;;21.53;67.85;98887.78;4962491;28;101651;-74
2023/07/09 05:34:21;;;;;;;;;16.50;15.75;;;;;21.73;69.53;98888.75;4964530;27;103566;-74
2023/07/09 05:36:48;;;;;;;;;18.00;17.00;;;;;21.20;67.83;98887.00;4963823;28;101496;-73
2023/07/09 05:39:16;;;;;;;;;18.25;17.00;;;;;21.00;70.05;98903.28;4964147;28;101878;-74
2023/07/09 05:41:44;;;;;;;;;18.75;17.75;;;;;21.22;71.69;98908.72;4966214;28;101793;-74
2023/07/09 05:44:11;;;;;;;;;18.00;17.00;;;;;21.63;68.72;98898.88;4961728;28;103314;-74
2023/07/09 05:46:38;;;;;;;;;21.25;20.50;;;;;22.02;71.34;98902.97;4962050;28;101883;-75
2023/07/09 05:49:06;;;;;;;;;28.50;25.75;;;;;22.16;71.36;98882.09;4965297;28;101925;-74
2023/07/09 05:51:34;;;;;;;;;16.00;15.67;;;;;22.46;65.67;98899.88;4964814;28;101861;-74
2023/07/09 05:54:01;;;;;;;;;15.00;15.00;;;;;22.65;64.27;98899.06;4965995;28;103272;-74
2023/07/09 05:56:29;;;;;;;;;14.00;14.00;;;;;22.90;63.15;98903.84;4966424;28;101546;-74
2023/07/09 05:58:56;;;;;;;;;14.67;14.67;;;;;23.01;64.21;98902.75;4961661;28;102121;-74
2023/07/09 06:01:24;;;;;;;;;13.67;13.67;;;;;23.16;63.03;98890.91;4966461;28;102626;-74
2023/07/09 06:03:51;;;;;;;;;12.33;12.33;;;;;23.37;62.16;98908.31;4964214;28;103365;-74
2023/07/09 06:06:18;;;;;;;;;14.00;13.00;;;;;23.34;61.86;98868.28;4963475;28;101683;-74
2023/07/09 06:08:46;;;;;;;;;11.67;11.33;;;;;23.66;61.61;98897.53;4963397;28;102421;-74
2023/07/09 06:11:13;;;;;;;;;21.33;20.67;;;;;23.82;64.39;98904.69;4945410;28;102182;-74
2023/07/09 06:13:41;;;;;;;;;19.33;19.00;;;;;24.00;63.21;98901.34;4962641;28;103343;-74
2023/07/09 06:16:08;;;;;;;;;20.00;16.67;;;;;24.27;61.91;98909.28;4960903;28;101562;-74
2023/07/09 06:18:35;;;;;;;;;15.00;14.33;;;;;24.38;57.20;98910.88;4964530;28;101590;-74
2023/07/09 06:21:03;;;;;;;;;17.33;16.00;;;;;24.37;57.70;98912.81;4965707;28;103414;-74
2023/07/09 06:23:31;;;;;;;;;13.67;13.33;;;;;24.46;58.00;98904.75;4959507;28;103517;-73
2023/07/09 06:25:58;;;;;;;;;14.00;13.33;;;;;24.65;57.94;98914.06;4963197;28;102840;-73
2023/07/09 06:28:29;;;;;;;;;11.00;10.67;;;;;24.71;56.27;98914.88;4967148;28;101557;-74
2023/07/09 06:30:56;;;;;;;;;17.67;16.00;;;;;24.23;58.07;98910.94;4948441;28;101914;-73
2023/07/09 06:33:25;;;;;;;;;12.00;11.33;;;;;24.49;59.09;98893.16;4962504;28;103496;-74
2023/07/09 06:35:59;;;;;;;;;13.00;12.33;;;;;24.75;58.14;98902.13;4960896;28;102275;-75
2023/07/09 06:38:28;;;;;;;;;13.33;13.00;;;;;24.40;54.57;98900.38;4964485;28;102552;-75
2023/07/09 06:40:57;;;;;;;;;13.00;12.67;;;;;24.34;59.06;98907.88;4961786;28;102064;-74
2023/07/09 06:43:24;;;;;;;;;14.00;14.00;;;;;24.68;57.32;98907.97;4965610;28;103508;-73
2023/07/09 06:45:53;;;;;;;;;15.67;14.00;;;;;25.02;58.41;98898.94;4965956;28;101904;-74
2023/07/09 06:48:21;;;;;;;;;17.00;15.33;;;;;25.01;56.64;98906.41;4966602;28;101608;-74
2023/07/09 06:50:48;;;;;;;;;19.00;18.67;;;;;25.38;58.29;98894.78;4965813;28;101820;-74
2023/07/09 06:53:15;;;;;;;;;18.67;18.67;;;;;25.52;54.90;98906.00;4965706;28;103347;-73
2023/07/09 06:55:43;;;;;;;;;18.00;16.67;;;;;25.56;58.48;98912.63;4967585;28;102122;-73
2023/07/09 06:58:10;;;;;;;;;18.00;17.33;;;;;25.86;55.05;98900.41;4966795;28;102260;-72
2023/07/09 07:00:37;;;;;;;;;13.33;12.33;;;;;26.01;52.18;98892.78;4967076;28;101682;-72
2023/07/09 07:03:06;;;;;;;;;13.00;11.00;;;;;26.15;51.88;98888.19;4964748;28;103224;-72
2023/07/09 07:05:34;;;;;;;;;9.67;9.00;;;;;26.23;50.85;98895.03;4961587;28;101525;-73
2023/07/09 07:08:02;;;;;;;;;7.33;7.00;;;;;26.30;49.13;98883.59;4966848;28;101654;-72
2023/07/09 07:10:30;;;;;;;;;7.00;7.00;;;;;26.43;48.79;98880.91;4969601;28;102684;-73
2023/07/09 07:12:57;;;;;;;;;7.00;7.00;;;;;26.47;48.69;98898.63;4963169;28;103708;-73
2023/07/09 07:15:24;;;;;;;;;11.33;10.67;;;;;26.24;51.25;98895.88;4972050;28;101887;-73
2023/07/09 07:17:51;;;;;;;;;10.33;10.00;;;;;25.92;50.39;98896.47;4963981;28;101573;-74
2023/07/09 07:20:18;;;;;;;;;12.00;12.00;;;;;25.87;50.00;98880.75;4972541;28;101924;-73
2023/07/09 07:22:46;;;;;;;;;10.67;10.33;;;;;26.00;50.82;98898.59;4970536;28;103383;-73
2023/07/09 07:25:13;;;;;;;;;9.00;9.00;;;;;26.00;54.04;98884.75;4970435;28;101541;-73
2023/07/09 07:27:40;;;;;;;;;18.00;17.33;;;;;25.83;51.35;98893.53;4974523;28;102069;-73
2023/07/09 07:30:11;;;;;;;;;12.00;12.00;;;;;26.07;52.70;98888.81;4968518;28;102106;-73
2023/07/09 07:32:44;;;;;;;;;15.33;14.33;;;;;26.39;54.53;98890.13;4970079;28;110130;-73
2023/07/09 07:35:13;;;;;;;;;10.00;10.00;;;;;26.62;53.55;98890.09;4971736;28;101511;-73
2023/07/09 07:37:40;;;;;;;;;11.67;10.67;;;;;26.73;49.66;98885.22;4970639;28;102177;-74
2023/07/09 07:40:09;;;;;;;;;12.00;11.00;;;;;26.87;51.28;98877.00;4967467;28;101567;-74
2023/07/09 07:42:36;;;;;;;;;9.00;7.33;;;;;26.96;46.48;98881.59;4967888;28;103470;-74
2023/07/09 07:45:04;;;;;;;;;5.33;5.00;;;;;27.12;46.28;98878.56;4969373;28;101563;-74
2023/07/09 07:47:32;;;;;;;;;9.00;7.00;;;;;27.23;48.72;98878.09;4968057;28;101998;-74
2023/07/09 07:50:02;;;;;;;;;8.67;8.67;;;;;26.66;49.58;98881.19;4967352;28;101490;-73
2023/07/09 07:52:29;;;;;;;;;13.33;12.67;;;;;26.60;52.25;98892.34;4971060;28;103330;-74
2023/07/09 07:54:56;;;;;;;;;12.00;11.00;;;;;26.97;52.16;98893.53;4968692;28;102031;-74
2023/07/09 07:57:25;;;;;;;;;13.33;12.67;;;;;26.48;47.35;98891.94;4968089;28;101801;-75
2023/07/09 07:59:52;;;;;;;;;9.33;9.33;;;;;26.64;48.92;98882.31;4969968;28;106112;-74
2023/07/09 08:02:20;;;;;;;;;7.67;7.67;;;;;26.95;49.84;98891.03;4969676;28;103333;-73
2023/07/09 08:04:47;;;;;;;;;8.33;8.33;;;;;27.00;49.88;98892.91;4967679;28;101668;-74
2023/07/09 08:07:14;;;;;;;;;7.00;6.00;;;;;27.35;48.89;98884.00;4965006;28;101488;-74
2023/07/09 08:09:41;;;;;;;;;6.00;6.00;;;;;27.47;47.25;98876.00;4969833;28;101862;-74
2023/07/09 08:12:11;;;;;;;;;8.00;7.00;;;;;27.63;46.73;98879.38;4967412;28;110527;-74
2023/07/09 08:14:44;;;;;;;;;5.00;5.00;;;;;27.84;46.35;98879.81;4968376;28;101777;-74
2023/07/09 08:17:12;;;;;;;;;7.67;7.67;;;;;27.87;43.66;98876.44;4968471;28;101550;-74
2023/07/09 08:20:05;;;;;;;;;11.67;11.00;;;;;27.23;46.89;98875.31;4969634;28;102559;-74
2023/07/09 08:22:32;;;;;;;;;14.00;13.67;;;;;27.08;44.77;98878.34;4961121;28;106746;-74
2023/07/09 08:24:59;;;;;;;;;13.00;12.00;;;;;26.91;45.32;98861.41;4967755;28;102630;-74
2023/07/09 08:27:26;;;;;;;;;10.00;9.00;;;;;27.40;45.37;98880.31;4966764;28;101805;-74
2023/07/09 08:29:53;;;;;;;;;7.33;7.00;;;;;27.69;43.85;98877.34;4969820;28;102658;-74
2023/07/09 08:32:20;;;;;;;;;9.33;8.00;;;;;27.60;44.10;98866.09;4966543;28;103465;-73
2023/07/09 08:34:47;;;;;;;;;10.00;9.67;;;;;27.42;43.51;98872.50;4968433;28;101829;-73
2023/07/09 08:37:34;;;;;;;;;8.00;7.67;;;;;27.69;45.83;98857.88;4968686;28;101514;-74
2023/07/09 08:40:01;;;;;;;;;8.00;6.67;;;;;28.00;42.40;98866.44;4967549;28;101986;-74
2023/07/09 08:42:41;;;;;;;;;9.00;8.33;;;;;28.30;41.37;98861.13;4968158;28;103442;-74
2023/07/09 08:45:48;;;;;;;;;6.00;6.00;;;;;28.48;42.86;98873.25;4949080;28;102390;-73
2023/07/09 08:48:25;;;;;;;;;6.67;5.00;;;;;28.44;41.00;98865.84;4964618;28;101927;-73
2023/07/09 08:51:04;;;;;;;;;6.00;6.00;;;;;28.34;38.70;98864.91;4967891;28;101770;-73
2023/07/09 08:53:39;;;;;;;;;7.00;7.00;;;;;28.53;41.89;98872.31;4966558;28;103373;-73
2023/07/09 08:56:09;;;;;;;;;13.33;10.00;;;;;27.91;36.97;98866.34;4968750;28;102246;-75
2023/07/09 08:58:38;;;;;;;;;11.00;9.00;;;;;28.30;41.30;98857.50;4969647;28;101772;-73
2023/07/09 09:01:14;;;;;;;;;8.00;7.33;;;;;28.51;39.19;98860.66;4968971;28;101747;-73
2023/07/09 09:03:53;;;;;;;;;7.00;7.00;;;;;28.70;39.20;98867.78;4967296;28;107806;-73
2023/07/09 09:06:28;;;;;;;;;7.33;7.00;;;;;28.46;36.52;98864.38;4969550;28;101652;-75
2023/07/09 09:09:01;;;;;;;;;9.00;9.00;;;;;28.66;37.41;98861.16;4966044;28;101693;-73
2023/07/09 09:12:03;;;;;;;;;8.33;8.33;;;;;28.67;35.77;98868.38;4969938;28;101589;-73
2023/07/09 09:14:35;;;;;;;;;5.00;5.00;;;;;28.97;37.19;98864.09;4962097;28;107902;-73
2023/07/09 09:17:11;;;;;;;;;8.00;8.00;;;;;28.96;38.77;98864.38;4964794;28;102300;-73
2023/07/09 09:19:43;;;;;;;;;5.67;5.67;;;;;29.12;37.80;98872.06;4968231;28;101796;-73
2023/07/09 09:22:16;;;;;;;;;5.00;4.67;;;;;29.20;37.40;98857.38;4967604;28;102272;-73
2023/07/09 09:25:08;;;;;;;;;9.00;9.00;;;;;29.01;35.62;98864.25;4966329;28;107967;-73
2023/07/09 09:27:38;;;;;;;;;11.00;10.00;;;;;28.86;34.76;98853.50;4967363;28;102052;-73
2023/07/09 09:30:13;;;;;;;;;7.67;7.67;;;;;29.08;34.36;98857.13;4965226;28;101683;-73
2023/07/09 09:32:44;;;;;;;;;5.33;5.00;;;;;29.05;33.04;98859.72;4968810;28;101775;-73
2023/07/09 09:35:14;;;;;;;;;4.00;4.00;;;;;29.30;33.80;98853.56;4965351;28;108236;-73
2023/07/09 09:37:51;;;;;;;;;3.33;3.33;;;;;29.42;36.47;98851.00;4967565;28;101781;-73
2023/07/09 09:40:23;;;;;;;;;6.33;6.00;;;;;29.31;34.48;98848.81;4965152;28;101840;-74
2023/07/09 09:42:53;;;;;;;;;5.00;5.00;;;;;29.30;33.35;98849.94;4950500;28;101776;-74
2023/07/09 09:45:24;;;;;;;;;6.00;6.00;;;;;29.49;34.29;98848.59;4967634;28;103420;-74
2023/07/09 09:47:51;;;;;;;;;5.00;4.00;;;;;29.49;33.42;98859.75;4966879;28;102158;-73
2023/07/09 09:50:22;;;;;;;;;5.33;5.33;;;;;29.43;34.08;98854.63;4965940;28;101997;-73
2023/07/09 09:52:49;;;;;;;;;6.67;6.67;;;;;29.42;33.54;98861.31;4967498;28;103032;-73
2023/07/09 09:55:32;;;;;;;;;5.00;5.00;;;;;29.32;30.56;98814.22;4966322;28;103578;-73
2023/07/09 09:57:59;;;;;;;;;3.00;3.00;;;;;29.74;32.89;98849.06;4965334;28;101440;-73
2023/07/09 10:00:29;;;;;;;;;5.00;5.00;;;;;29.74;29.13;98844.31;4965378;28;101785;-74
2023/07/09 10:03:01;;;;;;;;;3.00;3.00;;;;;29.77;33.15;98838.06;4966000;28;102224;-73
2023/07/09 10:05:41;;;;;;;;;5.00;5.00;;;;;29.92;32.34;98860.00;4965642;28;103511;-73
2023/07/09 10:08:13;;;;;;;;;10.00;9.67;;;;;29.51;31.80;98859.41;4962874;28;102414;-73
2023/07/09 10:10:45;;;;;;;;;10.67;10.67;;;;;29.37;30.24;98856.72;4967118;28;101622;-74
2023/07/09 10:13:31;;;;;;;;;13.00;11.00;;;;;29.24;29.44;98852.00;4968843;28;101677;-73
2023/07/09 10:16:04;;;;;;;;;10.67;10.00;;;;;29.24;32.72;98846.44;4966083;28;108079;-73
2023/07/09 10:18:54;;;;;;;;;6.00;6.00;;;;;29.31;31.23;98846.03;4962735;27;101795;-74
2023/07/09 10:21:41;;;;;;;;;6.00;6.00;;;;;29.11;31.54;98839.78;4960485;28;102607;-73
2023/07/09 10:24:27;;;;;;;;;6.00;6.00;;;;;28.91;30.98;98854.19;4960663;28;102633;-79
2023/07/09 10:27:16;;;;;;;;;6.33;6.33;;;;;28.97;31.97;98846.53;4964847;28;107868;-75
2023/07/09 10:30:04;;;;;;;;;5.67;5.67;;;;;28.99;29.81;98850.69;4963757;28;101777;-75
2023/07/09 10:33:04;;;;;;;;;11.00;11.00;;;;;29.00;31.97;98841.16;4958582;28;102543;-75
2023/07/09 10:35:49;;;;;;;;;10.67;10.67;;;;;29.33;31.31;98849.31;4965547;28;101756;-75
2023/07/09 10:38:43;;;;;;;;;8.00;7.33;;;;;29.59;29.46;98850.28;4958782;28;107938;-77
2023/07/09 10:41:12;;;;;;;;;11.33;11.33;;;;;29.35;30.11;98842.28;4961838;28;101941;-76
2023/07/09 10:44:05;;;;;;;;;9.00;8.00;;;;;29.37;30.09;98814.09;4962228;28;101630;-75
2023/07/09 10:46:37;;;;;;;;;6.00;5.00;;;;;29.90;30.63;98845.53;4962934;28;102048;-75
2023/07/09 10:49:09;;;;;;;;;5.00;5.00;;;;;30.13;28.80;98833.16;4966102;28;103322;-76
2023/07/09 10:51:52;;;;;;;;;5.33;5.00;;;;;30.20;29.47;98841.06;4966836;28;102068;-76
2023/07/09 10:54:34;;;;;;;;;4.67;4.67;;;;;30.36;29.39;98838.63;4960214;28;102971;-76
2023/07/09 10:57:14;;;;;;;;;5.00;4.33;;;;;30.29;29.00;98832.72;4971281;28;101845;-77
2023/07/09 10:59:46;;;;;;;;;8.67;8.67;;;;;29.99;28.77;98843.63;4962774;27;108062;-80
2023/07/09 11:02:40;;;;;;;;;9.00;9.00;;;;;29.97;28.29;98820.81;4967289;27;101570;-74
2023/07/09 11:05:07;;;;;;;;;7.33;6.67;;;;;30.32;28.63;98821.72;4964890;28;101574;-75
2023/07/09 11:07:56;;;;;;;;;7.00;7.00;;;;;30.31;28.86;98824.84;4963070;28;101703;-76
2023/07/09 11:10:26;;;;;;;;;6.67;6.67;;;;;30.23;29.13;98822.84;4967408;28;107854;-75
2023/07/09 11:13:03;;;;;;;;;12.67;12.00;;;;;29.46;30.57;98829.72;4967188;27;102164;-78
2023/07/09 11:15:35;;;;;;;;;12.00;12.00;;;;;29.19;29.63;98824.28;4952073;28;101685;-76
2023/07/09 11:18:07;;;;;;;;;9.33;9.33;;;;;29.53;29.38;98834.84;4971542;28;101943;-76
2023/07/09 11:20:36;;;;;;;;;9.00;9.00;;;;;29.58;30.51;98831.94;4964876;28;103300;-76
2023/07/09 11:23:15;;;;;;;;;11.00;11.00;;;;;29.65;29.99;98818.34;4966580;28;102008;-74
2023/07/09 11:26:12;;;;;;;;;9.00;9.00;;;;;29.85;28.83;98820.59;4948774;28;101970;-75
2023/07/09 11:28:41;;;;;;;;;8.00;7.33;;;;;29.82;29.12;98824.00;4965339;28;101747;-76
2023/07/09 11:31:20;;;;;;;;;11.33;11.00;;;;;29.81;30.72;98811.19;4965563;28;103629;-76
2023/07/09 11:33:59;;;;;;;;;13.00;12.33;;;;;29.39;30.42;98832.16;4967962;28;102091;-78